CheckWX is a tool to help pilots better visualize weather data.  It is not intended as a substitute for an official pre-flight weather briefing.

19:01:36 UTC

FNUG METAR
Uige Airport
Uige, Angola
Current

3 hours ago

FNUG 221600Z 27006KT 9999 SCT019 OVC070 24/19 Q1015
Observed
Feb-22 @ 16:00 UTC
Wind
  • 270° at 6 KTS
Visibility
10,000+ meters
Flight Rules
VFR
Cloud Levels
  • Scattered at 1,900' AGL
  • Overcast at 7,000' AGL
Temperature
24°C / 75°F
Dewpoint
19°C / 66°F
Humidity
74%
Altimeter
29.97" Hg
Pressure
1014.92 hPa
Previous

5 hours ago

FNUG 221400Z 27006KT 9999 SCT019 OVC070 23/20 Q1015
Observed
Feb-22 @ 14:00 UTC
Wind
  • 270° at 6 KTS
Visibility
10,000+ meters
Flight Rules
VFR
Cloud Levels
  • Scattered at 1,900' AGL
  • Overcast at 7,000' AGL
Temperature
23°C / 73°F
Dewpoint
20°C / 68°F
Humidity
83%
Altimeter
29.97" Hg
Pressure
1014.92 hPa
Previous

6 hours ago

FNUG 221300Z 27006KT 9999 OVC019 23/19 Q1016
Observed
Feb-22 @ 13:00 UTC
Wind
  • 270° at 6 KTS
Visibility
10,000+ meters
Flight Rules
MVFR
Cloud Levels
  • Overcast at 1,900' AGL
Temperature
23°C / 73°F
Dewpoint
19°C / 66°F
Humidity
78%
Altimeter
30" Hg
Pressure
1015.92 hPa